sensor_id;sensor_type;location;lat;lon;timestamp;pressure;altitude;pressure_sealevel;temperature;humidity
12951;BME280;6540;50.858;7.232;2023-04-09T00:00:43;51840.41;;;-142.34;30.37
12951;BME280;6540;50.858;7.232;2023-04-09T00:03:08;51870.69;;;-142.34;30.08
12951;BME280;6540;50.858;7.232;2023-04-09T00:05:40;51854.53;;;-142.34;30.30
12951;BME280;6540;50.858;7.232;2023-04-09T00:08:06;51870.69;;;-142.34;30.44
12951;BME280;6540;50.858;7.232;2023-04-09T00:10:31;51880.78;;;-142.34;29.76
12951;BME280;6540;50.858;7.232;2023-04-09T00:13:00;51870.69;;;-142.34;29.60
12951;BME280;6540;50.858;7.232;2023-04-09T00:15:26;51886.81;;;-142.34;30.09
12951;BME280;6540;50.858;7.232;2023-04-09T00:17:51;51872.69;;;-142.34;30.14
12951;BME280;6540;50.858;7.232;2023-04-09T00:20:17;51898.94;;;-142.34;30.14
12951;BME280;6540;50.858;7.232;2023-04-09T00:22:42;51888.84;;;-142.34;30.25
12951;BME280;6540;50.858;7.232;2023-04-09T00:25:07;51911.03;;;-142.34;30.05
12951;BME280;6540;50.858;7.232;2023-04-09T00:27:33;51882.78;;;-142.34;30.38
12951;BME280;6540;50.858;7.232;2023-04-09T00:29:58;51892.88;;;-142.34;30.38
12951;BME280;6540;50.858;7.232;2023-04-09T00:32:23;51872.69;;;-142.34;29.87
12951;BME280;6540;50.858;7.232;2023-04-09T00:34:49;51864.63;;;-142.34;30.41
12951;BME280;6540;50.858;7.232;2023-04-09T00:37:14;51882.78;;;-142.34;30.51
12951;BME280;6540;50.858;7.232;2023-04-09T00:39:40;51866.66;;;-142.34;30.52
12951;BME280;6540;50.858;7.232;2023-04-09T00:42:05;51882.78;;;-142.34;30.37
12951;BME280;6540;50.858;7.232;2023-04-09T00:44:40;51904.97;;;-142.34;30.79
12951;BME280;6540;50.858;7.232;2023-04-09T00:47:08;51878.75;;;-142.34;30.83
12951;BME280;6540;50.858;7.232;2023-04-09T00:49:34;51937.25;;;-142.34;31.33
12951;BME280;6540;50.858;7.232;2023-04-09T00:52:00;51860.59;;;-142.34;30.63
12951;BME280;6540;50.858;7.232;2023-04-09T00:54:26;51862.63;;;-142.34;29.89
12951;BME280;6540;50.858;7.232;2023-04-09T00:56:52;51870.69;;;-142.34;29.70
12951;BME280;6540;50.858;7.232;2023-04-09T00:59:18;51880.78;;;-142.34;31.31
12951;BME280;6540;50.858;7.232;2023-04-09T01:01:43;51886.81;;;-142.34;32.25
12951;BME280;6540;50.858;7.232;2023-04-09T01:04:08;51929.19;;;-142.34;31.48
12951;BME280;6540;50.858;7.232;2023-04-09T01:06:46;51880.78;;;-142.34;32.44
12951;BME280;6540;50.858;7.232;2023-04-09T01:09:17;51842.44;;;-142.34;31.42
12951;BME280;6540;50.858;7.232;2023-04-09T01:14:30;51907.00;;;-142.34;31.28
12951;BME280;6540;50.858;7.232;2023-04-09T01:17:33;51890.84;;;-142.34;31.05
12951;BME280;6540;50.858;7.232;2023-04-09T01:20:39;51919.09;;;-142.34;31.07
12951;BME280;6540;50.858;7.232;2023-04-09T01:24:00;51886.81;;;-142.34;32.78
12951;BME280;6540;50.858;7.232;2023-04-09T01:29:04;51892.88;;;-142.34;31.79
12951;BME280;6540;50.858;7.232;2023-04-09T01:31:34;51900.94;;;-142.34;32.60
12951;BME280;6540;50.858;7.232;2023-04-09T01:34:01;51896.91;;;-142.34;33.09
12951;BME280;6540;50.858;7.232;2023-04-09T01:36:29;51886.81;;;-142.34;32.56
12951;BME280;6540;50.858;7.232;2023-04-09T01:38:56;51902.97;;;-142.34;32.58
12951;BME280;6540;50.858;7.232;2023-04-09T01:41:23;51900.94;;;-142.34;32.11
12951;BME280;6540;50.858;7.232;2023-04-09T01:43:51;51898.94;;;-142.34;33.40
12951;BME280;6540;50.858;7.232;2023-04-09T01:46:18;51892.88;;;-142.34;33.79
12951;BME280;6540;50.858;7.232;2023-04-09T01:48:45;51894.88;;;-142.34;34.52
12951;BME280;6540;50.858;7.232;2023-04-09T01:51:11;51870.69;;;-142.34;32.93
12951;BME280;6540;50.858;7.232;2023-04-09T01:53:41;51923.13;;;-142.34;33.39
12951;BME280;6540;50.858;7.232;2023-04-09T01:56:07;51939.28;;;-142.34;31.78
12951;BME280;6540;50.858;7.232;2023-04-09T01:58:33;51915.06;;;-142.34;32.33
12951;BME280;6540;50.858;7.232;2023-04-09T02:01:13;51925.16;;;-142.34;32.58
12951;BME280;6540;50.858;7.232;2023-04-09T02:03:50;51902.97;;;-142.34;33.49
12951;BME280;6540;50.858;7.232;2023-04-09T02:06:30;51921.13;;;-142.34;33.15
12951;BME280;6540;50.858;7.232;2023-04-09T02:09:06;51874.72;;;-142.34;31.59
12951;BME280;6540;50.858;7.232;2023-04-09T02:11:33;51878.75;;;-142.34;33.44
12951;BME280;6540;50.858;7.232;2023-04-09T02:13:58;51892.88;;;-142.34;31.86
12951;BME280;6540;50.858;7.232;2023-04-09T02:16:25;51890.84;;;-142.34;32.64
12951;BME280;6540;50.858;7.232;2023-04-09T02:18:54;51913.03;;;-142.34;32.24
12951;BME280;6540;50.858;7.232;2023-04-09T02:21:22;51913.03;;;-142.34;32.03
12951;BME280;6540;50.858;7.232;2023-04-09T02:23:47;51921.13;;;-142.34;32.72
12951;BME280;6540;50.858;7.232;2023-04-09T02:26:13;51894.88;;;-142.34;31.88
12951;BME280;6540;50.858;7.232;2023-04-09T02:28:38;51925.16;;;-142.34;32.71
12951;BME280;6540;50.858;7.232;2023-04-09T02:31:03;51888.84;;;-142.34;32.49
12951;BME280;6540;50.858;7.232;2023-04-09T02:33:28;51902.97;;;-142.34;31.44
12951;BME280;6540;50.858;7.232;2023-04-09T02:35:54;51915.06;;;-142.34;32.13
12951;BME280;6540;50.858;7.232;2023-04-09T02:38:19;51902.97;;;-142.34;32.11
12951;BME280;6540;50.858;7.232;2023-04-09T02:40:45;51925.16;;;-142.34;32.50
12951;BME280;6540;50.858;7.232;2023-04-09T02:43:10;51933.22;;;-142.34;33.00
12951;BME280;6540;50.858;7.232;2023-04-09T02:45:35;51898.94;;;-142.34;32.28
12951;BME280;6540;50.858;7.232;2023-04-09T02:48:01;51894.88;;;-142.34;32.58
12951;BME280;6540;50.858;7.232;2023-04-09T02:50:26;51925.16;;;-142.34;32.30
12951;BME280;6540;50.858;7.232;2023-04-09T02:52:52;51917.06;;;-142.34;33.27
12951;BME280;6540;50.858;7.232;2023-04-09T02:55:18;51890.84;;;-142.34;33.79
12951;BME280;6540;50.858;7.232;2023-04-09T02:57:44;51892.88;;;-142.34;34.31
12951;BME280;6540;50.858;7.232;2023-04-09T03:00:10;51904.97;;;-142.34;34.48
12951;BME280;6540;50.858;7.232;2023-04-09T03:02:35;51886.81;;;-142.34;33.67
12951;BME280;6540;50.858;7.232;2023-04-09T03:05:01;51882.78;;;-142.34;32.96
12951;BME280;6540;50.858;7.232;2023-04-09T03:07:27;51939.28;;;-142.34;33.64
12951;BME280;6540;50.858;7.232;2023-04-09T03:09:52;51892.88;;;-142.34;32.33
12951;BME280;6540;50.858;7.232;2023-04-09T03:12:17;51929.19;;;-142.34;31.70
12951;BME280;6540;50.858;7.232;2023-04-09T03:14:43;51911.03;;;-142.34;32.18
12951;BME280;6540;50.858;7.232;2023-04-09T03:17:08;51898.94;;;-142.34;31.89
12951;BME280;6540;50.858;7.232;2023-04-09T03:19:33;51886.81;;;-142.34;32.57
12951;BME280;6540;50.858;7.232;2023-04-09T03:21:59;51907.00;;;-142.34;32.51
12951;BME280;6540;50.858;7.232;2023-04-09T03:24:24;51947.34;;;-142.34;31.31
12951;BME280;6540;50.858;7.232;2023-04-09T03:26:49;51931.19;;;-142.34;32.32
12951;BME280;6540;50.858;7.232;2023-04-09T03:29:15;51915.06;;;-142.34;30.35
12951;BME280;6540;50.858;7.232;2023-04-09T03:31:40;51959.44;;;-142.34;30.41
12951;BME280;6540;50.858;7.232;2023-04-09T03:34:05;51933.22;;;-142.34;31.96
12951;BME280;6540;50.858;7.232;2023-04-09T03:36:31;51892.88;;;-142.34;31.05
12951;BME280;6540;50.858;7.232;2023-04-09T03:38:56;51917.06;;;-142.34;30.24
12951;BME280;6540;50.858;7.232;2023-04-09T03:41:22;51933.22;;;-142.34;32.74
12951;BME280;6540;50.858;7.232;2023-04-09T03:43:47;51927.16;;;-142.34;31.43
12951;BME280;6540;50.858;7.232;2023-04-09T03:46:14;51925.16;;;-142.34;29.98
12951;BME280;6540;50.858;7.232;2023-04-09T03:48:39;51935.25;;;-142.34;31.79
12951;BME280;6540;50.858;7.232;2023-04-09T03:51:05;51931.19;;;-142.34;30.84
12951;BME280;6540;50.858;7.232;2023-04-09T03:53:30;51933.22;;;-142.34;30.58
12951;BME280;6540;50.858;7.232;2023-04-09T03:55:56;51943.31;;;-142.34;29.40
12951;BME280;6540;50.858;7.232;2023-04-09T03:58:21;51911.03;;;-142.34;30.27
12951;BME280;6540;50.858;7.232;2023-04-09T04:00:46;51927.16;;;-142.34;29.33
12951;BME280;6540;50.858;7.232;2023-04-09T04:03:13;51909.00;;;-142.34;31.78
12951;BME280;6540;50.858;7.232;2023-04-09T04:05:40;51939.28;;;-142.34;31.34
12951;BME280;6540;50.858;7.232;2023-04-09T04:08:05;51915.06;;;-142.34;32.31
12951;BME280;6540;50.858;7.232;2023-04-09T04:10:32;51904.97;;;-142.34;31.13
12951;BME280;6540;50.858;7.232;2023-04-09T04:12:58;51931.19;;;-142.34;32.35
12951;BME280;6540;50.858;7.232;2023-04-09T04:15:23;51896.91;;;-142.34;32.21
12951;BME280;6540;50.858;7.232;2023-04-09T04:17:48;51919.09;;;-142.34;31.40
12951;BME280;6540;50.858;7.232;2023-04-09T04:20:14;51876.72;;;-142.34;32.50
12951;BME280;6540;50.858;7.232;2023-04-09T04:22:39;51907.00;;;-142.34;30.66
12951;BME280;6540;50.858;7.232;2023-04-09T04:25:05;51898.94;;;-142.34;30.96
12951;BME280;6540;50.858;7.232;2023-04-09T04:27:30;51951.38;;;-142.34;31.13
12951;BME280;6540;50.858;7.232;2023-04-09T04:29:56;51929.19;;;-142.34;32.34
12951;BME280;6540;50.858;7.232;2023-04-09T04:32:23;51931.19;;;-142.34;33.25
12951;BME280;6540;50.858;7.232;2023-04-09T04:34:48;51923.13;;;-142.34;33.74
12951;BME280;6540;50.858;7.232;2023-04-09T04:37:14;51878.75;;;-142.34;32.89
12951;BME280;6540;50.858;7.232;2023-04-09T04:39:39;51874.72;;;-142.34;33.16
12951;BME280;6540;50.858;7.232;2023-04-09T04:42:05;51955.41;;;-142.34;32.59
12951;BME280;6540;50.858;7.232;2023-04-09T04:44:30;51939.28;;;-142.34;32.89
12951;BME280;6540;50.858;7.232;2023-04-09T04:46:55;51949.34;;;-142.34;31.67
12951;BME280;6540;50.858;7.232;2023-04-09T04:49:21;51939.28;;;-142.34;33.05
12951;BME280;6540;50.858;7.232;2023-04-09T04:51:46;51935.25;;;-142.34;32.39
12951;BME280;6540;50.858;7.232;2023-04-09T04:54:11;51907.00;;;-142.34;34.02
12951;BME280;6540;50.858;7.232;2023-04-09T04:56:37;51886.81;;;-142.34;33.85
12951;BME280;6540;50.858;7.232;2023-04-09T04:59:02;51894.88;;;-142.34;31.68
12951;BME280;6540;50.858;7.232;2023-04-09T05:01:28;51955.41;;;-142.34;30.92
12951;BME280;6540;50.858;7.232;2023-04-09T05:03:53;51921.13;;;-142.34;33.83
12951;BME280;6540;50.858;7.232;2023-04-09T05:06:18;51907.00;;;-142.34;33.01
12951;BME280;6540;50.858;7.232;2023-04-09T05:08:44;51915.06;;;-142.34;33.44
12951;BME280;6540;50.858;7.232;2023-04-09T05:11:13;51894.88;;;-142.34;34.23
12951;BME280;6540;50.858;7.232;2023-04-09T05:13:41;51919.09;;;-142.34;34.18
12951;BME280;6540;50.858;7.232;2023-04-09T05:16:06;51898.94;;;-142.34;33.85
12951;BME280;6540;50.858;7.232;2023-04-09T05:18:32;51896.91;;;-142.34;32.90
12951;BME280;6540;50.858;7.232;2023-04-09T05:20:57;51931.19;;;-142.34;33.61
12951;BME280;6540;50.858;7.232;2023-04-09T05:23:22;51907.00;;;-142.34;34.64
12951;BME280;6540;50.858;7.232;2023-04-09T05:25:48;51898.94;;;-142.34;33.15
12951;BME280;6540;50.858;7.232;2023-04-09T05:28:14;51933.22;;;-142.34;33.48
12951;BME280;6540;50.858;7.232;2023-04-09T05:30:44;51907.00;;;-142.34;33.70
12951;BME280;6540;50.858;7.232;2023-04-09T05:33:10;51911.03;;;-142.34;34.56
12951;BME280;6540;50.858;7.232;2023-04-09T05:35:38;51894.88;;;-142.34;33.56
12951;BME280;6540;50.858;7.232;2023-04-09T05:38:03;51935.25;;;-142.34;33.60
12951;BME280;6540;50.858;7.232;2023-04-09T05:40:28;51909.00;;;-142.34;35.07
12951;BME280;6540;50.858;7.232;2023-04-09T05:42:54;51904.97;;;-142.34;35.02
12951;BME280;6540;50.858;7.232;2023-04-09T05:45:19;51894.88;;;-142.34;35.54
12951;BME280;6540;50.858;7.232;2023-04-09T05:47:45;51935.25;;;-142.34;33.77
12951;BME280;6540;50.858;7.232;2023-04-09T05:50:10;51931.19;;;-142.34;34.07
12951;BME280;6540;50.858;7.232;2023-04-09T05:52:36;51921.13;;;-142.34;34.33
12951;BME280;6540;50.858;7.232;2023-04-09T05:55:04;51931.19;;;-142.34;33.90
12951;BME280;6540;50.858;7.232;2023-04-09T05:57:30;51933.22;;;-142.34;34.19
12951;BME280;6540;50.858;7.232;2023-04-09T05:59:56;51919.09;;;-142.34;33.05
12951;BME280;6540;50.858;7.232;2023-04-09T06:02:25;51943.31;;;-142.34;33.64
12951;BME280;6540;50.858;7.232;2023-04-09T06:04:54;51933.22;;;-142.34;34.22
12951;BME280;6540;50.858;7.232;2023-04-09T06:07:20;51943.31;;;-142.34;33.73
12951;BME280;6540;50.858;7.232;2023-04-09T06:09:45;51933.22;;;-142.34;34.86
12951;BME280;6540;50.858;7.232;2023-04-09T06:12:13;51937.25;;;-142.34;34.13
12951;BME280;6540;50.858;7.232;2023-04-09T06:14:39;51921.13;;;-142.34;33.23
12951;BME280;6540;50.858;7.232;2023-04-09T06:17:05;51953.41;;;-142.34;33.25
12951;BME280;6540;50.858;7.232;2023-04-09T06:19:30;51937.25;;;-142.34;33.06
12951;BME280;6540;50.858;7.232;2023-04-09T06:21:56;51927.16;;;-142.34;32.37
12951;BME280;6540;50.858;7.232;2023-04-09T06:24:21;51919.09;;;-142.34;33.49
12951;BME280;6540;50.858;7.232;2023-04-09T06:26:46;51894.88;;;-142.34;32.02
12951;BME280;6540;50.858;7.232;2023-04-09T06:29:12;51963.47;;;-142.34;31.78
12951;BME280;6540;50.858;7.232;2023-04-09T06:31:37;51945.31;;;-142.34;30.96
12951;BME280;6540;50.858;7.232;2023-04-09T06:34:02;51937.25;;;-142.34;31.50
12951;BME280;6540;50.858;7.232;2023-04-09T06:36:28;51951.38;;;-142.34;31.09
12951;BME280;6540;50.858;7.232;2023-04-09T06:38:54;51949.34;;;-142.34;31.06
12951;BME280;6540;50.858;7.232;2023-04-09T06:41:21;51963.47;;;-142.34;30.24
12951;BME280;6540;50.858;7.232;2023-04-09T06:43:47;51925.16;;;-142.34;31.74
12951;BME280;6540;50.858;7.232;2023-04-09T06:46:15;51923.13;;;-142.34;30.75
12951;BME280;6540;50.858;7.232;2023-04-09T06:48:44;51943.31;;;-142.34;30.96
12951;BME280;6540;50.858;7.232;2023-04-09T06:51:10;51894.88;;;-142.34;31.09
12951;BME280;6540;50.858;7.232;2023-04-09T06:53:36;51927.16;;;-142.34;30.72
12951;BME280;6540;50.858;7.232;2023-04-09T06:56:02;51951.38;;;-142.34;29.60
12951;BME280;6540;50.858;7.232;2023-04-09T06:58:27;51959.44;;;-142.34;29.72
12951;BME280;6540;50.858;7.232;2023-04-09T07:00:53;51894.88;;;-142.34;30.75
12951;BME280;6540;50.858;7.232;2023-04-09T07:03:18;51915.06;;;-142.34;29.24
12951;BME280;6540;50.858;7.232;2023-04-09T07:05:44;51929.19;;;-142.34;30.17
12951;BME280;6540;50.858;7.232;2023-04-09T07:08:09;51911.03;;;-142.34;29.53
12951;BME280;6540;50.858;7.232;2023-04-09T07:10:35;51882.78;;;-142.34;28.67
12951;BME280;6540;50.858;7.232;2023-04-09T07:13:01;51878.75;;;-142.34;28.43
12951;BME280;6540;50.858;7.232;2023-04-09T07:15:26;51890.84;;;-142.34;29.04
12951;BME280;6540;50.858;7.232;2023-04-09T07:17:51;51878.75;;;-142.34;28.43
12951;BME280;6540;50.858;7.232;2023-04-09T07:20:17;51907.00;;;-142.34;28.83
12951;BME280;6540;50.858;7.232;2023-04-09T07:22:42;51896.91;;;-142.34;29.00
12951;BME280;6540;50.858;7.232;2023-04-09T07:25:08;51882.78;;;-142.34;30.10
12951;BME280;6540;50.858;7.232;2023-04-09T07:27:33;51890.84;;;-142.34;28.58
12951;BME280;6540;50.858;7.232;2023-04-09T07:29:59;51882.78;;;-142.34;28.90
12951;BME280;6540;50.858;7.232;2023-04-09T07:32:25;51842.44;;;-142.34;29.14
12951;BME280;6540;50.858;7.232;2023-04-09T07:34:53;51852.53;;;-142.34;29.16
12951;BME280;6540;50.858;7.232;2023-04-09T07:37:19;51844.47;;;-142.34;28.80
12951;BME280;6540;50.858;7.232;2023-04-09T07:39:45;51844.47;;;-142.34;29.02
12951;BME280;6540;50.858;7.232;2023-04-09T07:42:11;51872.69;;;-142.34;29.90
12951;BME280;6540;50.858;7.232;2023-04-09T07:44:37;51850.50;;;-142.34;29.31
12951;BME280;6540;50.858;7.232;2023-04-09T07:47:03;51878.75;;;-142.34;27.98
12951;BME280;6540;50.858;7.232;2023-04-09T07:49:29;51854.53;;;-142.34;29.31
12951;BME280;6540;50.858;7.232;2023-04-09T07:51:55;51840.41;;;-142.34;27.74
12951;BME280;6540;50.858;7.232;2023-04-09T07:54:20;51850.50;;;-142.34;27.37
12951;BME280;6540;50.858;7.232;2023-04-09T07:56:46;51812.19;;;-142.34;27.65
12951;BME280;6540;50.858;7.232;2023-04-09T07:59:12;51838.41;;;-142.34;27.97
12951;BME280;6540;50.858;7.232;2023-04-09T08:01:39;51826.31;;;-142.34;27.12
12951;BME280;6540;50.858;7.232;2023-04-09T08:04:04;51790.00;;;-142.34;26.92
12951;BME280;6540;50.858;7.232;2023-04-09T08:06:30;51810.16;;;-142.34;27.00
12951;BME280;6540;50.858;7.232;2023-04-09T08:08:59;51838.41;;;-142.34;26.51
12951;BME280;6540;50.858;7.232;2023-04-09T08:11:24;51794.03;;;-142.34;26.86
12951;BME280;6540;50.858;7.232;2023-04-09T08:13:51;51838.41;;;-142.34;26.46
12951;BME280;6540;50.858;7.232;2023-04-09T08:16:17;51828.31;;;-142.34;27.14
12951;BME280;6540;50.858;7.232;2023-04-09T08:18:42;51790.00;;;-142.34;26.17
12951;BME280;6540;50.858;7.232;2023-04-09T08:21:07;51838.41;;;-142.34;27.34
12951;BME280;6540;50.858;7.232;2023-04-09T08:23:33;51832.34;;;-142.34;26.93
12951;BME280;6540;50.858;7.232;2023-04-09T08:25:58;51810.16;;;-142.34;26.18
12951;BME280;6540;50.858;7.232;2023-04-09T08:28:23;51792.00;;;-142.34;25.88
12951;BME280;6540;50.858;7.232;2023-04-09T08:30:49;51850.50;;;-142.34;27.71
12951;BME280;6540;50.858;7.232;2023-04-09T08:33:15;51790.00;;;-142.34;25.94
12951;BME280;6540;50.858;7.232;2023-04-09T08:35:40;51781.91;;;-142.34;25.51
12951;BME280;6540;50.858;7.232;2023-04-09T08:38:06;51800.06;;;-142.34;25.27
12951;BME280;6540;50.858;7.232;2023-04-09T08:40:35;51781.91;;;-142.34;25.12
12951;BME280;6540;50.858;7.232;2023-04-09T08:43:04;51787.97;;;-142.34;25.78
12951;BME280;6540;50.858;7.232;2023-04-09T08:45:30;51777.88;;;-142.34;25.44
12951;BME280;6540;50.858;7.232;2023-04-09T08:47:55;51761.75;;;-142.34;24.95
12951;BME280;6540;50.858;7.232;2023-04-09T08:50:25;51769.81;;;-142.34;25.37
12951;BME280;6540;50.858;7.232;2023-04-09T08:52:52;51771.84;;;-142.34;25.29
12951;BME280;6540;50.858;7.232;2023-04-09T08:55:17;51798.06;;;-142.34;25.12
12951;BME280;6540;50.858;7.232;2023-04-09T08:57:43;51783.94;;;-142.34;24.29
12951;BME280;6540;50.858;7.232;2023-04-09T09:00:08;51777.88;;;-142.34;24.59
12951;BME280;6540;50.858;7.232;2023-04-09T09:02:34;51763.75;;;-142.34;25.83
12951;BME280;6540;50.858;7.232;2023-04-09T09:04:59;51794.03;;;-142.34;26.00
12951;BME280;6540;50.858;7.232;2023-04-09T09:07:29;51785.94;;;-142.34;26.00
12951;BME280;6540;50.858;7.232;2023-04-09T09:09:59;51783.94;;;-142.34;25.30
12951;BME280;6540;50.858;7.232;2023-04-09T09:12:44;51775.88;;;-142.34;24.84
12951;BME280;6540;50.858;7.232;2023-04-09T09:15:29;51765.78;;;-142.34;24.29
12951;BME280;6540;50.858;7.232;2023-04-09T09:17:59;51765.78;;;-142.34;25.80
12951;BME280;6540;50.858;7.232;2023-04-09T09:20:25;51749.66;;;-142.34;25.60
12951;BME280;6540;50.858;7.232;2023-04-09T09:22:53;51761.75;;;-142.34;25.17
12951;BME280;6540;50.858;7.232;2023-04-09T09:25:19;51775.88;;;-142.34;25.45
12951;BME280;6540;50.858;7.232;2023-04-09T09:27:49;51779.91;;;-142.34;25.70
12951;BME280;6540;50.858;7.232;2023-04-09T09:30:23;51725.44;;;-142.34;25.36
12951;BME280;6540;50.858;7.232;2023-04-09T09:32:53;51773.84;;;-142.34;25.79
12951;BME280;6540;50.858;7.232;2023-04-09T09:35:19;51798.06;;;-142.34;27.06
12951;BME280;6540;50.858;7.232;2023-04-09T09:37:44;51757.72;;;-142.34;26.01
12951;BME280;6540;50.858;7.232;2023-04-09T09:40:10;51777.88;;;-142.34;25.06
12951;BME280;6540;50.858;7.232;2023-04-09T09:42:54;51798.06;;;-142.34;25.61
12951;BME280;6540;50.858;7.232;2023-04-09T09:45:20;51783.94;;;-142.34;25.18
12951;BME280;6540;50.858;7.232;2023-04-09T09:47:46;51705.25;;;-142.34;24.24
12951;BME280;6540;50.858;7.232;2023-04-09T09:50:12;51741.56;;;-142.34;24.93
12951;BME280;6540;50.858;7.232;2023-04-09T09:52:38;51745.59;;;-142.34;24.90
12951;BME280;6540;50.858;7.232;2023-04-09T09:55:05;51765.78;;;-142.34;25.58
12951;BME280;6540;50.858;7.232;2023-04-09T09:57:36;51761.75;;;-142.34;25.53
12951;BME280;6540;50.858;7.232;2023-04-09T10:00:04;51725.44;;;-142.34;24.65
12951;BME280;6540;50.858;7.232;2023-04-09T10:05:15;51725.44;;;-142.34;24.39
12951;BME280;6540;50.858;7.232;2023-04-09T10:07:41;51749.66;;;-142.34;24.83
12951;BME280;6540;50.858;7.232;2023-04-09T10:10:08;51729.47;;;-142.34;24.48
12951;BME280;6540;50.858;7.232;2023-04-09T10:12:33;51749.66;;;-142.34;25.01
12951;BME280;6540;50.858;7.232;2023-04-09T10:14:59;51759.72;;;-142.34;24.83
12951;BME280;6540;50.858;7.232;2023-04-09T10:17:29;51737.53;;;-142.34;24.21
12951;BME280;6540;50.858;7.232;2023-04-09T10:20:03;51719.38;;;-142.34;24.36
12951;BME280;6540;50.858;7.232;2023-04-09T10:22:30;51717.38;;;-142.34;24.31
12951;BME280;6540;50.858;7.232;2023-04-09T10:24:57;51725.44;;;-142.34;23.90
12951;BME280;6540;50.858;7.232;2023-04-09T10:27:25;51769.81;;;-142.34;24.63
12951;BME280;6540;50.858;7.232;2023-04-09T10:29:51;51711.31;;;-142.34;24.67
12951;BME280;6540;50.858;7.232;2023-04-09T10:32:18;51743.59;;;-142.34;24.64
12951;BME280;6540;50.858;7.232;2023-04-09T10:34:45;51729.47;;;-142.34;24.51
12951;BME280;6540;50.858;7.232;2023-04-09T10:37:15;51735.53;;;-142.34;24.73
12951;BME280;6540;50.858;7.232;2023-04-09T10:39:46;51719.38;;;-142.34;24.12
12951;BME280;6540;50.858;7.232;2023-04-09T10:42:21;51687.09;;;-142.34;23.53
12951;BME280;6540;50.858;7.232;2023-04-09T10:45:12;51675.00;;;-142.34;23.73
12951;BME280;6540;50.858;7.232;2023-04-09T10:47:42;51717.38;;;-142.34;23.60
12951;BME280;6540;50.858;7.232;2023-04-09T10:50:22;51679.03;;;-142.34;23.08
12951;BME280;6540;50.858;7.232;2023-04-09T10:52:55;51701.22;;;-142.34;23.53
12951;BME280;6540;50.858;7.232;2023-04-09T10:55:32;51689.13;;;-142.34;23.58
12951;BME280;6540;50.858;7.232;2023-04-09T10:57:59;51673.00;;;-142.34;23.11
12951;BME280;6540;50.858;7.232;2023-04-09T11:00:24;51673.00;;;-142.34;23.68
12951;BME280;6540;50.858;7.232;2023-04-09T11:05:32;51697.19;;;-142.34;24.14
12951;BME280;6540;50.858;7.232;2023-04-09T11:08:06;51699.22;;;-142.34;23.13
12951;BME280;6540;50.858;7.232;2023-04-09T11:10:34;51691.16;;;-142.34;23.31
12951;BME280;6540;50.858;7.232;2023-04-09T11:13:00;51701.22;;;-142.34;24.17
12951;BME280;6540;50.858;7.232;2023-04-09T11:15:26;51693.16;;;-142.34;24.05
12951;BME280;6540;50.858;7.232;2023-04-09T11:17:51;51668.97;;;-142.34;23.61
12951;BME280;6540;50.858;7.232;2023-04-09T11:20:20;51721.41;;;-142.34;23.69
12951;BME280;6540;50.858;7.232;2023-04-09T11:22:46;51717.38;;;-142.34;24.05
12951;BME280;6540;50.858;7.232;2023-04-09T11:25:21;51701.22;;;-142.34;23.58
12951;BME280;6540;50.858;7.232;2023-04-09T11:27:48;51689.13;;;-142.34;23.52
12951;BME280;6540;50.858;7.232;2023-04-09T11:30:13;51681.06;;;-142.34;24.31
12951;BME280;6540;50.858;7.232;2023-04-09T11:32:39;51745.59;;;-142.34;25.18
12951;BME280;6540;50.858;7.232;2023-04-09T11:35:16;51735.53;;;-142.34;23.98
12951;BME280;6540;50.858;7.232;2023-04-09T11:37:43;51677.03;;;-142.34;23.37
12951;BME280;6540;50.858;7.232;2023-04-09T11:40:17;51685.09;;;-142.34;23.07
12951;BME280;6540;50.858;7.232;2023-04-09T11:42:43;51685.09;;;-142.34;23.59
12951;BME280;6540;50.858;7.232;2023-04-09T11:45:10;51673.00;;;-142.34;23.59
12951;BME280;6540;50.858;7.232;2023-04-09T11:47:38;51668.97;;;-142.34;23.70
12951;BME280;6540;50.858;7.232;2023-04-09T11:50:06;51713.34;;;-142.34;23.90
12951;BME280;6540;50.858;7.232;2023-04-09T11:52:32;51723.41;;;-142.34;23.87
12951;BME280;6540;50.858;7.232;2023-04-09T11:55:03;51687.09;;;-142.34;23.71
12951;BME280;6540;50.858;7.232;2023-04-09T11:57:42;51693.16;;;-142.34;23.85
12951;BME280;6540;50.858;7.232;2023-04-09T12:00:27;51681.06;;;-142.34;23.30
12951;BME280;6540;50.858;7.232;2023-04-09T12:03:03;51677.03;;;-142.34;23.20
12951;BME280;6540;50.858;7.232;2023-04-09T12:05:31;51693.16;;;-142.34;23.95
12951;BME280;6540;50.858;7.232;2023-04-09T12:08:05;51664.91;;;-142.34;23.63
12951;BME280;6540;50.858;7.232;2023-04-09T12:10:35;51701.22;;;-142.34;24.20
12951;BME280;6540;50.858;7.232;2023-04-09T12:13:04;51715.34;;;-142.34;24.04
12951;BME280;6540;50.858;7.232;2023-04-09T12:15:34;51681.06;;;-142.34;23.76
12951;BME280;6540;50.858;7.232;2023-04-09T12:18:01;51711.31;;;-142.34;23.36
12951;BME280;6540;50.858;7.232;2023-04-09T12:20:37;51697.19;;;-142.34;23.67
12951;BME280;6540;50.858;7.232;2023-04-09T12:23:07;51685.09;;;-142.34;23.53
12951;BME280;6540;50.858;7.232;2023-04-09T12:25:38;51691.16;;;-142.34;23.38
12951;BME280;6540;50.858;7.232;2023-04-09T12:28:05;51701.22;;;-142.34;23.81
12951;BME280;6540;50.858;7.232;2023-04-09T12:30:34;51693.16;;;-142.34;23.31
12951;BME280;6540;50.858;7.232;2023-04-09T12:33:03;51691.16;;;-142.34;23.92
12951;BME280;6540;50.858;7.232;2023-04-09T12:35:28;51654.84;;;-142.34;23.22
12951;BME280;6540;50.858;7.232;2023-04-09T12:37:54;51636.69;;;-142.34;23.12
12951;BME280;6540;50.858;7.232;2023-04-09T12:40:19;51620.53;;;-142.34;23.44
12951;BME280;6540;50.858;7.232;2023-04-09T12:42:45;51660.88;;;-142.34;23.63
12951;BME280;6540;50.858;7.232;2023-04-09T12:45:15;51666.94;;;-142.34;23.77
12951;BME280;6540;50.858;7.232;2023-04-09T12:47:42;51697.19;;;-142.34;23.75
12951;BME280;6540;50.858;7.232;2023-04-09T12:50:08;51658.88;;;-142.34;22.95
12951;BME280;6540;50.858;7.232;2023-04-09T12:52:36;51685.09;;;-142.34;23.68
12951;BME280;6540;50.858;7.232;2023-04-09T12:55:03;51630.63;;;-142.34;23.21
12951;BME280;6540;50.858;7.232;2023-04-09T12:57:29;51677.03;;;-142.34;24.68
12951;BME280;6540;50.858;7.232;2023-04-09T12:59:54;51713.34;;;-142.34;23.38
12951;BME280;6540;50.858;7.232;2023-04-09T13:02:20;51717.38;;;-142.34;24.66